sensor_id;sensor_type;location;lat;lon;timestamp;P1;durP1;ratioP1;P2;durP2;ratioP2
8213;SDS011;4148;47.974;7.824;2022-07-15T00:00:19;6.63;;;4.53;;
8213;SDS011;4148;47.974;7.824;2022-07-15T00:02:47;5.20;;;4.20;;
8213;SDS011;4148;47.974;7.824;2022-07-15T00:05:15;6.33;;;4.50;;
8213;SDS011;4148;47.974;7.824;2022-07-15T00:07:44;14.10;;;5.20;;
8213;SDS011;4148;47.974;7.824;2022-07-15T00:10:12;6.53;;;4.50;;
8213;SDS011;4148;47.974;7.824;2022-07-15T00:12:46;6.77;;;5.30;;
8213;SDS011;4148;47.974;7.824;2022-07-15T00:15:17;6.63;;;4.70;;
8213;SDS011;4148;47.974;7.824;2022-07-15T00:17:46;10.63;;;5.63;;
8213;SDS011;4148;47.974;7.824;2022-07-15T00:20:16;7.50;;;4.80;;
8213;SDS011;4148;47.974;7.824;2022-07-15T00:22:46;9.37;;;5.60;;
8213;SDS011;4148;47.974;7.824;2022-07-15T00:25:14;11.13;;;5.90;;
8213;SDS011;4148;47.974;7.824;2022-07-15T00:27:50;7.90;;;5.20;;
8213;SDS011;4148;47.974;7.824;2022-07-15T00:30:20;7.60;;;5.10;;
8213;SDS011;4148;47.974;7.824;2022-07-15T00:32:49;7.00;;;4.53;;
8213;SDS011;4148;47.974;7.824;2022-07-15T00:35:18;8.47;;;5.67;;
8213;SDS011;4148;47.974;7.824;2022-07-15T00:37:46;9.67;;;5.80;;
8213;SDS011;4148;47.974;7.824;2022-07-15T00:40:13;7.50;;;5.33;;
8213;SDS011;4148;47.974;7.824;2022-07-15T00:42:41;9.07;;;5.30;;
8213;SDS011;4148;47.974;7.824;2022-07-15T00:45:13;7.47;;;6.20;;
8213;SDS011;4148;47.974;7.824;2022-07-15T00:47:44;7.03;;;5.63;;
8213;SDS011;4148;47.974;7.824;2022-07-15T00:50:13;8.40;;;5.20;;
8213;SDS011;4148;47.974;7.824;2022-07-15T00:52:43;6.80;;;5.30;;
8213;SDS011;4148;47.974;7.824;2022-07-15T00:55:13;6.10;;;5.07;;
8213;SDS011;4148;47.974;7.824;2022-07-15T00:57:42;8.50;;;6.90;;
8213;SDS011;4148;47.974;7.824;2022-07-15T01:00:11;7.13;;;6.37;;
8213;SDS011;4148;47.974;7.824;2022-07-15T01:02:41;8.67;;;5.23;;
8213;SDS011;4148;47.974;7.824;2022-07-15T01:05:18;7.57;;;6.00;;
8213;SDS011;4148;47.974;7.824;2022-07-15T01:07:47;7.00;;;6.23;;
8213;SDS011;4148;47.974;7.824;2022-07-15T01:10:17;8.60;;;5.97;;
8213;SDS011;4148;47.974;7.824;2022-07-15T01:12:46;11.23;;;5.77;;
8213;SDS011;4148;47.974;7.824;2022-07-15T01:15:15;7.73;;;5.10;;
8213;SDS011;4148;47.974;7.824;2022-07-15T01:17:44;8.70;;;5.57;;
8213;SDS011;4148;47.974;7.824;2022-07-15T01:20:13;7.93;;;5.10;;
8213;SDS011;4148;47.974;7.824;2022-07-15T01:22:43;8.57;;;5.63;;
8213;SDS011;4148;47.974;7.824;2022-07-15T01:25:14;8.13;;;5.70;;
8213;SDS011;4148;47.974;7.824;2022-07-15T01:27:42;9.60;;;5.70;;
8213;SDS011;4148;47.974;7.824;2022-07-15T01:30:10;7.37;;;5.20;;
8213;SDS011;4148;47.974;7.824;2022-07-15T01:32:38;7.63;;;5.03;;
8213;SDS011;4148;47.974;7.824;2022-07-15T01:35:06;6.20;;;5.60;;
8213;SDS011;4148;47.974;7.824;2022-07-15T01:37:35;9.00;;;6.07;;
8213;SDS011;4148;47.974;7.824;2022-07-15T01:40:05;5.47;;;4.83;;
8213;SDS011;4148;47.974;7.824;2022-07-15T01:42:34;6.10;;;5.30;;
8213;SDS011;4148;47.974;7.824;2022-07-15T01:45:02;6.33;;;5.50;;
8213;SDS011;4148;47.974;7.824;2022-07-15T01:47:31;9.00;;;5.60;;
8213;SDS011;4148;47.974;7.824;2022-07-15T01:49:59;5.70;;;5.00;;
8213;SDS011;4148;47.974;7.824;2022-07-15T01:52:27;5.77;;;4.70;;
8213;SDS011;4148;47.974;7.824;2022-07-15T01:54:55;6.20;;;5.00;;
8213;SDS011;4148;47.974;7.824;2022-07-15T01:57:24;9.40;;;5.80;;
8213;SDS011;4148;47.974;7.824;2022-07-15T01:59:52;6.23;;;4.20;;
8213;SDS011;4148;47.974;7.824;2022-07-15T02:02:20;7.60;;;4.87;;
8213;SDS011;4148;47.974;7.824;2022-07-15T02:04:48;6.97;;;4.67;;
8213;SDS011;4148;47.974;7.824;2022-07-15T02:07:16;7.93;;;5.17;;
8213;SDS011;4148;47.974;7.824;2022-07-15T02:09:44;5.03;;;4.30;;
8213;SDS011;4148;47.974;7.824;2022-07-15T02:12:12;6.53;;;5.00;;
8213;SDS011;4148;47.974;7.824;2022-07-15T02:14:42;6.70;;;4.70;;
8213;SDS011;4148;47.974;7.824;2022-07-15T02:17:10;9.70;;;4.80;;
8213;SDS011;4148;47.974;7.824;2022-07-15T02:19:38;7.47;;;5.07;;
8213;SDS011;4148;47.974;7.824;2022-07-15T02:22:06;5.07;;;4.37;;
8213;SDS011;4148;47.974;7.824;2022-07-15T02:24:34;8.63;;;5.27;;
8213;SDS011;4148;47.974;7.824;2022-07-15T02:27:02;6.60;;;4.30;;
8213;SDS011;4148;47.974;7.824;2022-07-15T02:29:30;6.60;;;4.60;;
8213;SDS011;4148;47.974;7.824;2022-07-15T02:31:59;6.27;;;4.60;;
8213;SDS011;4148;47.974;7.824;2022-07-15T02:34:27;8.73;;;4.53;;
8213;SDS011;4148;47.974;7.824;2022-07-15T02:36:55;5.87;;;4.00;;
8213;SDS011;4148;47.974;7.824;2022-07-15T02:39:24;8.30;;;4.60;;
8213;SDS011;4148;47.974;7.824;2022-07-15T02:41:52;5.97;;;5.37;;
8213;SDS011;4148;47.974;7.824;2022-07-15T02:44:20;8.43;;;5.70;;
8213;SDS011;4148;47.974;7.824;2022-07-15T02:46:48;6.50;;;5.37;;
8213;SDS011;4148;47.974;7.824;2022-07-15T02:49:17;8.03;;;5.20;;
8213;SDS011;4148;47.974;7.824;2022-07-15T02:51:45;5.90;;;5.30;;
8213;SDS011;4148;47.974;7.824;2022-07-15T02:54:13;6.03;;;5.40;;
8213;SDS011;4148;47.974;7.824;2022-07-15T02:56:41;5.80;;;4.97;;
8213;SDS011;4148;47.974;7.824;2022-07-15T02:59:09;6.43;;;5.00;;
8213;SDS011;4148;47.974;7.824;2022-07-15T03:01:36;9.57;;;5.60;;
8213;SDS011;4148;47.974;7.824;2022-07-15T03:04:05;9.90;;;5.87;;
8213;SDS011;4148;47.974;7.824;2022-07-15T03:06:34;9.73;;;6.47;;
8213;SDS011;4148;47.974;7.824;2022-07-15T03:09:02;7.17;;;5.17;;
8213;SDS011;4148;47.974;7.824;2022-07-15T03:11:31;5.80;;;5.20;;
8213;SDS011;4148;47.974;7.824;2022-07-15T03:13:59;5.60;;;5.10;;
8213;SDS011;4148;47.974;7.824;2022-07-15T03:16:27;6.83;;;5.27;;
8213;SDS011;4148;47.974;7.824;2022-07-15T03:18:54;7.83;;;5.30;;
8213;SDS011;4148;47.974;7.824;2022-07-15T03:21:22;7.60;;;5.30;;
8213;SDS011;4148;47.974;7.824;2022-07-15T03:23:52;12.33;;;5.73;;
8213;SDS011;4148;47.974;7.824;2022-07-15T03:26:20;7.87;;;5.33;;
8213;SDS011;4148;47.974;7.824;2022-07-15T03:28:48;11.07;;;5.60;;
8213;SDS011;4148;47.974;7.824;2022-07-15T03:31:16;6.47;;;5.47;;
8213;SDS011;4148;47.974;7.824;2022-07-15T03:33:45;9.30;;;5.83;;
8213;SDS011;4148;47.974;7.824;2022-07-15T03:36:19;8.30;;;5.80;;
8213;SDS011;4148;47.974;7.824;2022-07-15T03:38:47;9.03;;;5.67;;
8213;SDS011;4148;47.974;7.824;2022-07-15T03:41:19;7.70;;;5.40;;
8213;SDS011;4148;47.974;7.824;2022-07-15T03:43:47;12.50;;;6.40;;
8213;SDS011;4148;47.974;7.824;2022-07-15T03:46:15;10.30;;;5.27;;
8213;SDS011;4148;47.974;7.824;2022-07-15T03:48:43;9.67;;;5.17;;
8213;SDS011;4148;47.974;7.824;2022-07-15T03:51:11;6.30;;;5.30;;
8213;SDS011;4148;47.974;7.824;2022-07-15T03:53:39;7.63;;;6.10;;
8213;SDS011;4148;47.974;7.824;2022-07-15T03:56:07;8.33;;;5.60;;
8213;SDS011;4148;47.974;7.824;2022-07-15T03:58:36;8.60;;;5.23;;
8213;SDS011;4148;47.974;7.824;2022-07-15T04:01:04;6.60;;;5.80;;
8213;SDS011;4148;47.974;7.824;2022-07-15T04:03:32;12.20;;;6.03;;
8213;SDS011;4148;47.974;7.824;2022-07-15T04:06:00;8.87;;;5.50;;
8213;SDS011;4148;47.974;7.824;2022-07-15T04:08:28;10.80;;;5.90;;
8213;SDS011;4148;47.974;7.824;2022-07-15T04:10:57;6.70;;;5.30;;
8213;SDS011;4148;47.974;7.824;2022-07-15T04:13:25;6.93;;;5.30;;
8213;SDS011;4148;47.974;7.824;2022-07-15T04:15:54;9.60;;;5.70;;
8213;SDS011;4148;47.974;7.824;2022-07-15T04:18:22;6.80;;;5.27;;
8213;SDS011;4148;47.974;7.824;2022-07-15T04:20:54;8.40;;;5.50;;
8213;SDS011;4148;47.974;7.824;2022-07-15T04:23:22;8.67;;;5.50;;
8213;SDS011;4148;47.974;7.824;2022-07-15T04:25:50;8.37;;;6.20;;
8213;SDS011;4148;47.974;7.824;2022-07-15T04:28:19;9.83;;;6.20;;
8213;SDS011;4148;47.974;7.824;2022-07-15T04:30:47;13.60;;;6.13;;
8213;SDS011;4148;47.974;7.824;2022-07-15T04:33:18;7.10;;;5.77;;
8213;SDS011;4148;47.974;7.824;2022-07-15T04:35:47;7.23;;;5.80;;
8213;SDS011;4148;47.974;7.824;2022-07-15T04:38:15;7.20;;;6.30;;
8213;SDS011;4148;47.974;7.824;2022-07-15T04:40:43;10.80;;;6.40;;
8213;SDS011;4148;47.974;7.824;2022-07-15T04:43:11;7.40;;;5.50;;
8213;SDS011;4148;47.974;7.824;2022-07-15T04:45:39;9.20;;;5.97;;
8213;SDS011;4148;47.974;7.824;2022-07-15T04:48:07;8.60;;;5.83;;
8213;SDS011;4148;47.974;7.824;2022-07-15T04:50:50;8.50;;;5.57;;
8213;SDS011;4148;47.974;7.824;2022-07-15T04:53:18;8.60;;;6.00;;
8213;SDS011;4148;47.974;7.824;2022-07-15T04:55:47;8.53;;;6.20;;
8213;SDS011;4148;47.974;7.824;2022-07-15T04:58:15;6.30;;;5.47;;
8213;SDS011;4148;47.974;7.824;2022-07-15T05:00:43;8.93;;;5.83;;
8213;SDS011;4148;47.974;7.824;2022-07-15T05:03:12;8.93;;;5.80;;
8213;SDS011;4148;47.974;7.824;2022-07-15T05:05:41;6.43;;;5.17;;
8213;SDS011;4148;47.974;7.824;2022-07-15T05:08:10;5.87;;;5.27;;
8213;SDS011;4148;47.974;7.824;2022-07-15T05:10:38;6.93;;;5.70;;
8213;SDS011;4148;47.974;7.824;2022-07-15T05:13:06;9.60;;;5.57;;
8213;SDS011;4148;47.974;7.824;2022-07-15T05:15:34;8.20;;;5.30;;
8213;SDS011;4148;47.974;7.824;2022-07-15T05:18:02;8.23;;;6.07;;
8213;SDS011;4148;47.974;7.824;2022-07-15T05:20:30;7.77;;;5.30;;
8213;SDS011;4148;47.974;7.824;2022-07-15T05:22:58;7.00;;;4.73;;
8213;SDS011;4148;47.974;7.824;2022-07-15T05:25:27;9.73;;;5.30;;
8213;SDS011;4148;47.974;7.824;2022-07-15T05:27:55;6.90;;;5.57;;
8213;SDS011;4148;47.974;7.824;2022-07-15T05:30:23;6.13;;;4.70;;
8213;SDS011;4148;47.974;7.824;2022-07-15T05:32:51;8.30;;;5.00;;
8213;SDS011;4148;47.974;7.824;2022-07-15T05:35:19;6.10;;;5.10;;
8213;SDS011;4148;47.974;7.824;2022-07-15T05:37:48;5.13;;;4.50;;
8213;SDS011;4148;47.974;7.824;2022-07-15T05:40:15;5.30;;;4.50;;
8213;SDS011;4148;47.974;7.824;2022-07-15T05:42:45;4.83;;;4.27;;
8213;SDS011;4148;47.974;7.824;2022-07-15T05:45:13;6.03;;;4.47;;
8213;SDS011;4148;47.974;7.824;2022-07-15T05:47:45;5.90;;;5.17;;
8213;SDS011;4148;47.974;7.824;2022-07-15T05:50:14;9.30;;;4.90;;
8213;SDS011;4148;47.974;7.824;2022-07-15T05:52:42;10.03;;;5.20;;
8213;SDS011;4148;47.974;7.824;2022-07-15T05:55:10;7.63;;;5.37;;
8213;SDS011;4148;47.974;7.824;2022-07-15T05:57:37;9.87;;;5.97;;
8213;SDS011;4148;47.974;7.824;2022-07-15T06:00:13;6.10;;;4.60;;
8213;SDS011;4148;47.974;7.824;2022-07-15T06:02:41;8.77;;;5.23;;
8213;SDS011;4148;47.974;7.824;2022-07-15T06:05:10;9.50;;;5.47;;
8213;SDS011;4148;47.974;7.824;2022-07-15T06:07:38;6.33;;;5.33;;
8213;SDS011;4148;47.974;7.824;2022-07-15T06:10:08;9.17;;;5.47;;
8213;SDS011;4148;47.974;7.824;2022-07-15T06:12:37;6.00;;;4.73;;
8213;SDS011;4148;47.974;7.824;2022-07-15T06:15:05;8.33;;;6.20;;
8213;SDS011;4148;47.974;7.824;2022-07-15T06:17:35;8.73;;;5.50;;
8213;SDS011;4148;47.974;7.824;2022-07-15T06:20:04;7.00;;;5.60;;
8213;SDS011;4148;47.974;7.824;2022-07-15T06:22:37;6.70;;;5.20;;
8213;SDS011;4148;47.974;7.824;2022-07-15T06:25:05;7.97;;;5.20;;
8213;SDS011;4148;47.974;7.824;2022-07-15T06:27:34;5.83;;;4.80;;
8213;SDS011;4148;47.974;7.824;2022-07-15T06:30:02;6.63;;;5.07;;
8213;SDS011;4148;47.974;7.824;2022-07-15T06:32:31;9.50;;;5.23;;
8213;SDS011;4148;47.974;7.824;2022-07-15T06:35:01;7.03;;;5.13;;
8213;SDS011;4148;47.974;7.824;2022-07-15T06:37:29;7.20;;;5.13;;
8213;SDS011;4148;47.974;7.824;2022-07-15T06:39:57;6.97;;;4.63;;
8213;SDS011;4148;47.974;7.824;2022-07-15T06:42:25;7.13;;;5.00;;
8213;SDS011;4148;47.974;7.824;2022-07-15T06:44:53;6.63;;;4.70;;
8213;SDS011;4148;47.974;7.824;2022-07-15T06:47:21;6.80;;;4.70;;
8213;SDS011;4148;47.974;7.824;2022-07-15T06:49:49;6.10;;;4.77;;
8213;SDS011;4148;47.974;7.824;2022-07-15T06:52:18;8.10;;;4.83;;
8213;SDS011;4148;47.974;7.824;2022-07-15T06:54:46;6.20;;;4.80;;
8213;SDS011;4148;47.974;7.824;2022-07-15T06:57:14;5.00;;;4.50;;
8213;SDS011;4148;47.974;7.824;2022-07-15T06:59:45;7.60;;;4.07;;
8213;SDS011;4148;47.974;7.824;2022-07-15T07:02:13;7.60;;;4.43;;
8213;SDS011;4148;47.974;7.824;2022-07-15T07:04:42;8.83;;;4.63;;
8213;SDS011;4148;47.974;7.824;2022-07-15T07:07:11;6.37;;;4.20;;
8213;SDS011;4148;47.974;7.824;2022-07-15T07:09:41;6.07;;;4.90;;
8213;SDS011;4148;47.974;7.824;2022-07-15T07:12:08;6.93;;;3.93;;
8213;SDS011;4148;47.974;7.824;2022-07-15T07:14:37;8.57;;;4.87;;
8213;SDS011;4148;47.974;7.824;2022-07-15T07:17:05;7.90;;;4.50;;
8213;SDS011;4148;47.974;7.824;2022-07-15T07:19:32;6.60;;;4.47;;
8213;SDS011;4148;47.974;7.824;2022-07-15T07:22:00;9.73;;;4.90;;
8213;SDS011;4148;47.974;7.824;2022-07-15T07:24:28;6.50;;;4.60;;
8213;SDS011;4148;47.974;7.824;2022-07-15T07:26:57;6.63;;;4.20;;
8213;SDS011;4148;47.974;7.824;2022-07-15T07:29:32;5.73;;;4.00;;
8213;SDS011;4148;47.974;7.824;2022-07-15T07:32:00;5.97;;;4.30;;
8213;SDS011;4148;47.974;7.824;2022-07-15T07:34:28;7.93;;;4.40;;
8213;SDS011;4148;47.974;7.824;2022-07-15T07:36:56;5.53;;;4.50;;
8213;SDS011;4148;47.974;7.824;2022-07-15T07:39:24;4.93;;;3.73;;
8213;SDS011;4148;47.974;7.824;2022-07-15T07:41:52;9.47;;;4.87;;
8213;SDS011;4148;47.974;7.824;2022-07-15T07:44:21;6.07;;;4.07;;
8213;SDS011;4148;47.974;7.824;2022-07-15T07:46:49;6.20;;;4.80;;
8213;SDS011;4148;47.974;7.824;2022-07-15T07:49:17;7.37;;;4.70;;
8213;SDS011;4148;47.974;7.824;2022-07-15T07:52:01;6.20;;;4.13;;
8213;SDS011;4148;47.974;7.824;2022-07-15T07:54:29;7.53;;;4.43;;
8213;SDS011;4148;47.974;7.824;2022-07-15T07:56:58;5.37;;;3.50;;
8213;SDS011;4148;47.974;7.824;2022-07-15T07:59:27;8.57;;;4.20;;
8213;SDS011;4148;47.974;7.824;2022-07-15T08:01:57;8.07;;;5.00;;
8213;SDS011;4148;47.974;7.824;2022-07-15T08:04:25;4.97;;;4.03;;
8213;SDS011;4148;47.974;7.824;2022-07-15T08:06:53;7.20;;;4.33;;
8213;SDS011;4148;47.974;7.824;2022-07-15T08:09:21;7.70;;;4.10;;
8213;SDS011;4148;47.974;7.824;2022-07-15T08:11:48;6.40;;;3.93;;
8213;SDS011;4148;47.974;7.824;2022-07-15T08:14:16;6.07;;;4.00;;
8213;SDS011;4148;47.974;7.824;2022-07-15T08:16:46;9.33;;;4.40;;
8213;SDS011;4148;47.974;7.824;2022-07-15T08:19:14;5.57;;;3.73;;
8213;SDS011;4148;47.974;7.824;2022-07-15T08:21:43;4.70;;;4.27;;
8213;SDS011;4148;47.974;7.824;2022-07-15T08:24:11;5.93;;;4.17;;
8213;SDS011;4148;47.974;7.824;2022-07-15T08:26:39;7.53;;;4.10;;
8213;SDS011;4148;47.974;7.824;2022-07-15T08:29:07;8.60;;;4.20;;
8213;SDS011;4148;47.974;7.824;2022-07-15T08:31:35;9.93;;;3.77;;
8213;SDS011;4148;47.974;7.824;2022-07-15T08:34:05;7.00;;;4.10;;
8213;SDS011;4148;47.974;7.824;2022-07-15T08:36:33;6.10;;;4.27;;
8213;SDS011;4148;47.974;7.824;2022-07-15T08:39:01;6.37;;;4.60;;
8213;SDS011;4148;47.974;7.824;2022-07-15T08:41:33;6.60;;;3.77;;
8213;SDS011;4148;47.974;7.824;2022-07-15T08:44:02;4.90;;;3.70;;
8213;SDS011;4148;47.974;7.824;2022-07-15T08:46:30;6.27;;;4.03;;
8213;SDS011;4148;47.974;7.824;2022-07-15T08:49:02;9.30;;;4.37;;
8213;SDS011;4148;47.974;7.824;2022-07-15T08:51:35;6.80;;;4.63;;
8213;SDS011;4148;47.974;7.824;2022-07-15T08:54:05;4.53;;;4.13;;
8213;SDS011;4148;47.974;7.824;2022-07-15T08:56:34;4.90;;;3.73;;
8213;SDS011;4148;47.974;7.824;2022-07-15T08:59:03;8.17;;;4.60;;
8213;SDS011;4148;47.974;7.824;2022-07-15T09:01:33;5.03;;;4.33;;
8213;SDS011;4148;47.974;7.824;2022-07-15T09:04:09;4.80;;;4.30;;
8213;SDS011;4148;47.974;7.824;2022-07-15T09:06:37;6.90;;;4.47;;
8213;SDS011;4148;47.974;7.824;2022-07-15T09:09:25;7.57;;;4.30;;
8213;SDS011;4148;47.974;7.824;2022-07-15T09:11:57;8.20;;;3.90;;
8213;SDS011;4148;47.974;7.824;2022-07-15T09:14:39;4.03;;;3.40;;
8213;SDS011;4148;47.974;7.824;2022-07-15T09:17:21;5.40;;;3.50;;
8213;SDS011;4148;47.974;7.824;2022-07-15T09:20:06;5.90;;;3.60;;
8213;SDS011;4148;47.974;7.824;2022-07-15T09:22:49;5.50;;;3.93;;
8213;SDS011;4148;47.974;7.824;2022-07-15T09:25:19;4.47;;;3.70;;
8213;SDS011;4148;47.974;7.824;2022-07-15T09:27:48;5.07;;;3.80;;
8213;SDS011;4148;47.974;7.824;2022-07-15T09:30:18;7.93;;;4.23;;
8213;SDS011;4148;47.974;7.824;2022-07-15T09:33:06;6.00;;;3.90;;
8213;SDS011;4148;47.974;7.824;2022-07-15T09:35:54;4.20;;;3.80;;
8213;SDS011;4148;47.974;7.824;2022-07-15T09:38:37;5.00;;;4.20;;
8213;SDS011;4148;47.974;7.824;2022-07-15T09:41:11;4.87;;;3.73;;
8213;SDS011;4148;47.974;7.824;2022-07-15T09:43:45;5.63;;;4.33;;
8213;SDS011;4148;47.974;7.824;2022-07-15T09:46:15;4.77;;;4.27;;
8213;SDS011;4148;47.974;7.824;2022-07-15T09:48:46;4.90;;;4.50;;
8213;SDS011;4148;47.974;7.824;2022-07-15T09:51:16;4.63;;;3.60;;
8213;SDS011;4148;47.974;7.824;2022-07-15T09:53:45;4.53;;;4.13;;
8213;SDS011;4148;47.974;7.824;2022-07-15T09:56:14;5.80;;;4.40;;
8213;SDS011;4148;47.974;7.824;2022-07-15T09:58:47;4.77;;;3.77;;
8213;SDS011;4148;47.974;7.824;2022-07-15T10:01:16;7.50;;;4.23;;
8213;SDS011;4148;47.974;7.824;2022-07-15T10:03:44;8.50;;;4.63;;
8213;SDS011;4148;47.974;7.824;2022-07-15T10:06:13;6.10;;;3.90;;
8213;SDS011;4148;47.974;7.824;2022-07-15T10:08:47;4.93;;;4.43;;
8213;SDS011;4148;47.974;7.824;2022-07-15T10:11:15;5.13;;;4.20;;
8213;SDS011;4148;47.974;7.824;2022-07-15T10:13:49;6.10;;;3.80;;
8213;SDS011;4148;47.974;7.824;2022-07-15T10:16:42;7.93;;;4.20;;
8213;SDS011;4148;47.974;7.824;2022-07-15T10:19:34;4.40;;;4.00;;
8213;SDS011;4148;47.974;7.824;2022-07-15T10:22:14;5.30;;;3.73;;
8213;SDS011;4148;47.974;7.824;2022-07-15T10:25:07;6.10;;;4.30;;
8213;SDS011;4148;47.974;7.824;2022-07-15T10:27:46;5.80;;;3.50;;
8213;SDS011;4148;47.974;7.824;2022-07-15T10:30:22;5.10;;;4.00;;
8213;SDS011;4148;47.974;7.824;2022-07-15T10:33:06;5.13;;;4.00;;
8213;SDS011;4148;47.974;7.824;2022-07-15T10:35:41;4.90;;;4.00;;
8213;SDS011;4148;47.974;7.824;2022-07-15T10:38:27;4.77;;;4.27;;
8213;SDS011;4148;47.974;7.824;2022-07-15T10:40:59;5.37;;;4.27;;
8213;SDS011;4148;47.974;7.824;2022-07-15T10:43:42;5.33;;;3.67;;
8213;SDS011;4148;47.974;7.824;2022-07-15T10:46:16;5.80;;;3.93;;
8213;SDS011;4148;47.974;7.824;2022-07-15T10:48:46;7.07;;;4.13;;
8213;SDS011;4148;47.974;7.824;2022-07-15T10:57:08;5.10;;;3.50;;
8213;SDS011;4148;47.974;7.824;2022-07-15T10:59:37;4.70;;;3.73;;
8213;SDS011;4148;47.974;7.824;2022-07-15T11:02:11;5.70;;;4.63;;
8213;SDS011;4148;47.974;7.824;2022-07-15T11:04:41;4.60;;;3.57;;
8213;SDS011;4148;47.974;7.824;2022-07-15T11:07:19;5.30;;;4.20;;
8213;SDS011;4148;47.974;7.824;2022-07-15T11:09:52;6.70;;;4.37;;
8213;SDS011;4148;47.974;7.824;2022-07-15T11:12:23;5.10;;;4.33;;
8213;SDS011;4148;47.974;7.824;2022-07-15T11:15:11;5.10;;;3.70;;
8213;SDS011;4148;47.974;7.824;2022-07-15T11:17:41;4.57;;;3.87;;
8213;SDS011;4148;47.974;7.824;2022-07-15T11:20:11;5.50;;;3.57;;
8213;SDS011;4148;47.974;7.824;2022-07-15T11:22:41;4.80;;;3.90;;
8213;SDS011;4148;47.974;7.824;2022-07-15T11:25:16;4.47;;;4.07;;
8213;SDS011;4148;47.974;7.824;2022-07-15T11:27:55;4.67;;;4.00;;
8213;SDS011;4148;47.974;7.824;2022-07-15T11:30:25;6.73;;;4.00;;
8213;SDS011;4148;47.974;7.824;2022-07-15T11:32:54;4.70;;;3.87;;
8213;SDS011;4148;47.974;7.824;2022-07-15T11:35:24;6.67;;;4.10;;
8213;SDS011;4148;47.974;7.824;2022-07-15T11:38:00;4.70;;;4.20;;
8213;SDS011;4148;47.974;7.824;2022-07-15T11:40:30;5.00;;;4.03;;
8213;SDS011;4148;47.974;7.824;2022-07-15T11:43:18;5.90;;;4.20;;
8213;SDS011;4148;47.974;7.824;2022-07-15T11:46:05;4.70;;;4.10;;
8213;SDS011;4148;47.974;7.824;2022-07-15T11:48:34;4.50;;;3.70;;
8213;SDS011;4148;47.974;7.824;2022-07-15T11:51:03;5.30;;;4.40;;
8213;SDS011;4148;47.974;7.824;2022-07-15T11:53:35;9.53;;;4.43;;
8213;SDS011;4148;47.974;7.824;2022-07-15T11:56:06;6.60;;;4.37;;
8213;SDS011;4148;47.974;7.824;2022-07-15T11:58:37;4.23;;;3.87;;
8213;SDS011;4148;47.974;7.824;2022-07-15T12:01:07;5.90;;;4.57;;
8213;SDS011;4148;47.974;7.824;2022-07-15T12:03:37;4.80;;;4.37;;
8213;SDS011;4148;47.974;7.824;2022-07-15T12:06:08;5.57;;;4.23;;
8213;SDS011;4148;47.974;7.824;2022-07-15T12:08:41;4.63;;;3.90;;
8213;SDS011;4148;47.974;7.824;2022-07-15T12:11:21;8.83;;;4.80;;
8213;SDS011;4148;47.974;7.824;2022-07-15T12:13:53;9.00;;;4.30;;
8213;SDS011;4148;47.974;7.824;2022-07-15T12:16:24;6.00;;;4.60;;
8213;SDS011;4148;47.974;7.824;2022-07-15T12:18:55;4.90;;;4.40;;
8213;SDS011;4148;47.974;7.824;2022-07-15T12:21:25;5.37;;;4.87;;
8213;SDS011;4148;47.974;7.824;2022-07-15T12:23:59;5.27;;;4.77;;
8213;SDS011;4148;47.974;7.824;2022-07-15T12:26:29;10.90;;;4.20;;
8213;SDS011;4148;47.974;7.824;2022-07-15T12:29:00;4.50;;;4.10;;
8213;SDS011;4148;47.974;7.824;2022-07-15T12:31:29;5.70;;;3.97;;
8213;SDS011;4148;47.974;7.824;2022-07-15T12:34:00;5.13;;;4.60;;
8213;SDS011;4148;47.974;7.824;2022-07-15T12:36:29;5.43;;;4.10;;
8213;SDS011;4148;47.974;7.824;2022-07-15T12:39:03;4.50;;;4.10;;
8213;SDS011;4148;47.974;7.824;2022-07-15T12:41:33;6.30;;;4.70;;
8213;SDS011;4148;47.974;7.824;2022-07-15T12:44:04;6.40;;;4.60;;
8213;SDS011;4148;47.974;7.824;2022-07-15T12:46:47;5.00;;;4.33;;
8213;SDS011;4148;47.974;7.824;2022-07-15T12:52:29;5.70;;;5.10;;
8213;SDS011;4148;47.974;7.824;2022-07-15T12:54:59;4.93;;;3.60;;
8213;SDS011;4148;47.974;7.824;2022-07-15T12:57:39;4.73;;;3.87;;
8213;SDS011;4148;47.974;7.824;2022-07-15T13:00:11;5.10;;;4.00;;
8213;SDS011;4148;47.974;7.824;2022-07-15T13:03:00;5.03;;;4.20;;
8213;SDS011;4148;47.974;7.824;2022-07-15T13:05:31;6.50;;;4.23;;
8213;SDS011;4148;47.974;7.824;2022-07-15T13:08:04;4.43;;;3.80;;
8213;SDS011;4148;47.974;7.824;2022-07-15T13:10:32;5.13;;;3.97;;
8213;SDS011;4148;47.974;7.824;2022-07-15T13:13:01;6.27;;;3.67;;
8213;SDS011;4148;47.974;7.824;2022-07-15T13:15:30;4.80;;;4.33;;
8213;SDS011;4148;47.974;7.824;2022-07-15T13:17:58;4.67;;;4.00;;
8213;SDS011;4148;47.974;7.824;2022-07-15T13:20:27;5.00;;;4.50;;
8213;SDS011;4148;47.974;7.824;2022-07-15T13:22:55;4.30;;;3.90;;
8213;SDS011;4148;47.974;7.824;2022-07-15T13:25:24;5.10;;;4.13;;
8213;SDS011;4148;47.974;7.824;2022-07-15T13:27:52;5.70;;;4.37;;
8213;SDS011;4148;47.974;7.824;2022-07-15T13:30:20;7.20;;;4.67;;
8213;SDS011;4148;47.974;7.824;2022-07-15T13:32:50;5.10;;;4.53;;
8213;SDS011;4148;47.974;7.824;2022-07-15T13:35:18;5.83;;;4.40;;
8213;SDS011;4148;47.974;7.824;2022-07-15T13:37:46;4.87;;;4.37;;
8213;SDS011;4148;47.974;7.824;2022-07-15T13:40:14;4.50;;;4.10;;
8213;SDS011;4148;47.974;7.824;2022-07-15T13:42:42;4.83;;;4.30;;
8213;SDS011;4148;47.974;7.824;2022-07-15T13:45:11;6.53;;;4.27;;
8213;SDS011;4148;47.974;7.824;2022-07-15T13:47:39;6.80;;;4.17;;
8213;SDS011;4148;47.974;7.824;2022-07-15T13:50:09;10.00;;;4.43;;
8213;SDS011;4148;47.974;7.824;2022-07-15T13:52:56;4.30;;;3.90;;
8213;SDS011;4148;47.974;7.824;2022-07-15T13:55:25;4.60;;;4.03;;
8213;SDS011;4148;47.974;7.824;2022-07-15T13:57:53;4.53;;;4.10;;
8213;SDS011;4148;47.974;7.824;2022-07-15T14:00:22;5.30;;;4.03;;
8213;SDS011;4148;47.974;7.824;2022-07-15T14:02:51;5.03;;;4.23;;
8213;SDS011;4148;47.974;7.824;2022-07-15T14:05:22;7.40;;;4.63;;
8213;SDS011;4148;47.974;7.824;2022-07-15T14:07:51;4.53;;;4.13;;
8213;SDS011;4148;47.974;7.824;2022-07-15T14:10:20;5.70;;;4.30;;
8213;SDS011;4148;47.974;7.824;2022-07-15T14:12:48;4.90;;;4.17;;
8213;SDS011;4148;47.974;7.824;2022-07-15T14:15:17;9.90;;;4.60;;
8213;SDS011;4148;47.974;7.824;2022-07-15T14:17:52;5.70;;;4.83;;
8213;SDS011;4148;47.974;7.824;2022-07-15T14:20:20;4.50;;;3.80;;
8213;SDS011;4148;47.974;7.824;2022-07-15T14:22:50;4.57;;;4.17;;
8213;SDS011;4148;47.974;7.824;2022-07-15T14:25:18;5.97;;;4.30;;
8213;SDS011;4148;47.974;7.824;2022-07-15T14:27:46;4.20;;;3.80;;
8213;SDS011;4148;47.974;7.824;2022-07-15T14:30:14;4.37;;;3.97;;
8213;SDS011;4148;47.974;7.824;2022-07-15T14:32:44;5.30;;;3.80;;
8213;SDS011;4148;47.974;7.824;2022-07-15T14:35:12;5.93;;;4.07;;
8213;SDS011;4148;47.974;7.824;2022-07-15T14:37:40;5.57;;;3.97;;
8213;SDS011;4148;47.974;7.824;2022-07-15T14:40:10;4.37;;;3.77;;
8213;SDS011;4148;47.974;7.824;2022-07-15T14:42:38;4.07;;;3.63;;
8213;SDS011;4148;47.974;7.824;2022-07-15T14:45:06;4.30;;;3.90;;
8213;SDS011;4148;47.974;7.824;2022-07-15T14:47:35;6.03;;;3.97;;
8213;SDS011;4148;47.974;7.824;2022-07-15T14:50:03;4.83;;;3.80;;
8213;SDS011;4148;47.974;7.824;2022-07-15T14:52:32;4.90;;;4.10;;
8213;SDS011;4148;47.974;7.824;2022-07-15T14:55:00;4.73;;;4.33;;
8213;SDS011;4148;47.974;7.824;2022-07-15T14:57:30;6.20;;;3.90;;
8213;SDS011;4148;47.974;7.824;2022-07-15T14:59:57;3.80;;;3.50;;
8213;SDS011;4148;47.974;7.824;2022-07-15T15:02:25;5.13;;;3.80;;
8213;SDS011;4148;47.974;7.824;2022-07-15T15:04:54;4.60;;;4.20;;
8213;SDS011;4148;47.974;7.824;2022-07-15T15:07:22;4.53;;;4.00;;
8213;SDS011;4148;47.974;7.824;2022-07-15T15:09:50;8.40;;;4.23;;
8213;SDS011;4148;47.974;7.824;2022-07-15T15:12:18;4.47;;;4.03;;
8213;SDS011;4148;47.974;7.824;2022-07-15T15:14:47;8.57;;;4.00;;
8213;SDS011;4148;47.974;7.824;2022-07-15T15:17:15;4.67;;;4.23;;
8213;SDS011;4148;47.974;7.824;2022-07-15T15:19:43;4.60;;;4.07;;
8213;SDS011;4148;47.974;7.824;2022-07-15T15:22:11;5.43;;;4.53;;
8213;SDS011;4148;47.974;7.824;2022-07-15T15:24:38;8.30;;;4.23;;
8213;SDS011;4148;47.974;7.824;2022-07-15T15:27:06;5.53;;;4.53;;
8213;SDS011;4148;47.974;7.824;2022-07-15T15:29:37;5.30;;;3.90;;
8213;SDS011;4148;47.974;7.824;2022-07-15T15:32:07;4.50;;;4.10;;
8213;SDS011;4148;47.974;7.824;2022-07-15T15:34:38;5.30;;;3.80;;
8213;SDS011;4148;47.974;7.824;2022-07-15T15:37:07;5.73;;;4.63;;
8213;SDS011;4148;47.974;7.824;2022-07-15T15:39:35;4.83;;;4.20;;
8213;SDS011;4148;47.974;7.824;2022-07-15T15:42:03;4.87;;;4.37;;